Time;durP1;ratioP1;P1;durP2;ratioP2;P2;SDS_P1;SDS_P2;PMS_P1;PMS_P2;Temp;Humidity;BMP_temperature;BMP_pressure;BME280_temperature;BME280_humidity;BME280_pressure;Samples;Min_cycle;Max_cycle;Signal;HPM_P1;HPM_P2
2022/09/28 00:00:19;;;;;;;7.45;3.80;;;;;;;8.80;100.00;98570.22;5013458;28;20209;-73
2022/09/28 00:02:46;;;;;;;5.60;3.63;;;;;;;8.88;100.00;98562.50;5013447;28;20232;-73
2022/09/28 00:05:12;;;;;;;7.57;3.78;;;;;;;8.92;100.00;98558.66;5013449;28;20208;-74
2022/09/28 00:07:39;;;;;;;6.47;4.05;;;;;;;8.88;100.00;98555.31;5013006;28;20200;-73
2022/09/28 00:10:07;;;;;;;8.02;3.63;;;;;;;8.83;100.00;98551.22;5012149;28;20596;-74
2022/09/28 00:12:33;;;;;;;5.05;3.97;;;;;;;8.77;100.00;98531.91;5020646;28;20250;-74
2022/09/28 00:15:00;;;;;;;6.13;4.13;;;;;;;8.80;100.00;98530.81;5012932;28;20231;-74
2022/09/28 00:17:27;;;;;;;5.47;4.05;;;;;;;8.84;100.00;98528.78;5012021;28;20322;-73
2022/09/28 00:19:56;;;;;;;5.05;4.07;;;;;;;8.82;100.00;98509.22;5011995;28;20210;-73
2022/09/28 00:22:23;;;;;;;6.47;4.22;;;;;;;8.78;100.00;98505.91;5012350;28;20207;-74
2022/09/28 00:24:49;;;;;;;7.68;4.80;;;;;;;8.73;100.00;98490.13;5012605;28;20197;-75
2022/09/28 00:27:16;;;;;;;10.38;5.45;;;;;;;8.81;100.00;98492.28;5019933;28;20230;-74
2022/09/28 00:29:43;;;;;;;8.68;5.93;;;;;;;8.75;100.00;98488.19;5011913;28;20207;-74
2022/09/28 00:32:12;;;;;;;9.25;4.95;;;;;;;8.84;100.00;98486.72;5011935;28;20250;-74
2022/09/28 00:34:44;;;;;;;9.82;7.90;;;;;;;8.80;100.00;98484.34;5012058;28;20231;-73
2022/09/28 00:37:12;;;;;;;7.25;4.70;;;;;;;8.80;100.00;98481.66;5011868;28;20669;-74
2022/09/28 00:39:40;;;;;;;8.10;5.10;;;;;;;8.87;100.00;98470.38;5011873;28;20558;-74
2022/09/28 00:42:12;;;;;;;7.60;5.65;;;;;;;8.91;100.00;98471.00;5018905;28;20210;-74
2022/09/28 00:44:46;;;;;;;9.27;5.43;;;;;;;8.88;100.00;98466.72;5020168;28;20188;-74
2022/09/28 00:47:25;;;;;;;7.18;5.05;;;;;;;8.87;100.00;98459.66;5019231;28;20192;-74
2022/09/28 00:49:58;;;;;;;8.55;5.45;;;;;;;8.89;100.00;98451.50;5016050;28;20277;-73
2022/09/28 00:52:29;;;;;;;6.40;4.95;;;;;;;8.92;100.00;98453.97;5019936;28;20208;-74
2022/09/28 00:54:58;;;;;;;8.57;5.35;;;;;;;8.92;100.00;98446.75;5024873;28;20227;-73
2022/09/28 00:57:25;;;;;;;6.72;5.38;;;;;;;8.94;100.00;98435.91;5027677;28;20200;-73
2022/09/28 00:59:52;;;;;;;7.93;5.78;;;;;;;8.96;100.00;98426.78;5033329;28;20208;-74
2022/09/28 01:02:19;;;;;;;6.72;5.82;;;;;;;9.00;100.00;98426.56;5036708;28;20221;-74
2022/09/28 01:04:47;;;;;;;8.55;5.82;;;;;;;8.98;100.00;98418.63;5039144;28;20215;-73
2022/09/28 01:07:16;;;;;;;9.60;6.10;;;;;;;8.95;100.00;98421.50;5019536;28;20205;-74
2022/09/28 01:09:43;;;;;;;8.07;6.28;;;;;;;9.01;100.00;98414.88;5016948;28;20205;-75
2022/09/28 01:12:10;;;;;;;7.60;5.80;;;;;;;9.02;100.00;98406.69;5020381;28;20209;-75
2022/09/28 01:14:37;;;;;;;16.05;8.52;;;;;;;8.99;100.00;98396.19;5026183;28;20220;-75
2022/09/28 01:17:08;;;;;;;10.07;6.90;;;;;;;9.02;100.00;98389.72;5018534;28;20203;-74
2022/09/28 01:20:07;;;;;;;10.32;6.60;;;;;;;9.07;100.00;98396.50;5019280;28;20204;-74
2022/09/28 01:23:12;;;;;;;8.73;6.82;;;;;;;9.14;100.00;98392.41;5024964;28;20296;-75
2022/09/28 01:25:50;;;;;;;8.00;6.70;;;;;;;9.16;100.00;98385.09;4960250;28;20206;-74
2022/09/28 01:28:20;;;;;;;8.02;7.05;;;;;;;9.12;100.00;98385.44;4954310;28;20261;-73
2022/09/28 01:30:58;;;;;;;14.50;7.13;;;;;;;9.10;100.00;98365.88;4959769;28;20202;-74
2022/09/28 01:33:28;;;;;;;10.85;8.05;;;;;;;9.02;100.00;98371.78;4967732;28;20779;-73
2022/09/28 01:35:59;;;;;;;10.57;8.00;;;;;;;9.04;100.00;98366.31;4969466;28;20212;-74
2022/09/28 01:38:31;;;;;;;11.48;8.43;;;;;;;9.07;100.00;98369.66;4956761;29;20259;-73
2022/09/28 01:40:59;;;;;;;10.30;7.30;;;;;;;9.13;100.00;98362.97;4957235;29;20327;-74
2022/09/28 01:43:29;;;;;;;11.80;6.80;;;;;;;9.16;100.00;98362.78;4958072;28;20237;-73
2022/09/28 01:46:00;;;;;;;8.52;7.65;;;;;;;9.20;100.00;98366.94;4957891;29;20639;-74
2022/09/28 01:48:32;;;;;;;11.30;7.60;;;;;;;9.19;100.00;98355.34;4979855;28;20187;-75
2022/09/28 01:51:01;;;;;;;9.80;7.85;;;;;;;9.19;100.00;98358.03;4979623;28;20191;-74
2022/09/28 01:53:34;;;;;;;10.13;8.63;;;;;;;9.22;100.00;98340.81;4980075;28;20243;-75
2022/09/28 01:56:07;;;;;;;10.15;7.00;;;;;;;9.18;100.00;98344.72;4979871;28;20258;-74
2022/09/28 01:58:38;;;;;;;10.25;7.60;;;;;;;9.21;100.00;98336.44;4980106;28;20238;-75
2022/09/28 02:01:12;;;;;;;9.07;6.97;;;;;;;9.21;100.00;98335.59;4980123;28;20193;-74
2022/09/28 02:03:42;;;;;;;9.98;8.00;;;;;;;9.19;100.00;98336.53;5028784;28;20267;-75
2022/09/28 02:06:16;;;;;;;10.10;8.10;;;;;;;9.13;100.00;98339.66;5038839;28;20177;-75
2022/09/28 02:08:49;;;;;;;13.07;8.50;;;;;;;9.27;100.00;98336.00;5039411;28;20256;-75
2022/09/28 02:11:18;;;;;;;9.52;8.13;;;;;;;9.30;100.00;98340.28;5038042;28;20205;-74
2022/09/28 02:13:50;;;;;;;12.02;7.88;;;;;;;9.31;100.00;98332.09;5014368;28;20228;-74
2022/09/28 02:16:22;;;;;;;13.07;8.75;;;;;;;9.32;100.00;98324.91;5013732;28;20197;-73
2022/09/28 02:18:49;;;;;;;12.25;8.07;;;;;;;9.33;100.00;98329.31;5012996;28;20256;-73
2022/09/28 02:21:21;;;;;;;10.15;7.57;;;;;;;9.33;100.00;98327.47;5023003;28;20201;-74
2022/09/28 02:23:53;;;;;;;12.05;9.15;;;;;;;9.30;100.00;98316.09;5034281;28;20227;-74
2022/09/28 02:26:24;;;;;;;9.60;8.25;;;;;;;9.29;100.00;98325.13;5023054;28;20208;-74
2022/09/28 02:28:52;;;;;;;9.45;8.02;;;;;;;9.36;100.00;98327.25;5015687;28;20197;-74
2022/09/28 02:31:19;;;;;;;10.82;8.90;;;;;;;9.37;100.00;98336.16;5015206;28;20204;-74
2022/09/28 02:33:47;;;;;;;15.70;8.02;;;;;;;9.44;100.00;98350.00;5013915;28;20238;-73
2022/09/28 02:36:14;;;;;;;10.23;7.20;;;;;;;9.47;100.00;98339.03;5022686;28;20200;-74
2022/09/28 02:38:41;;;;;;;7.43;5.93;;;;;;;9.53;100.00;98343.97;5033313;28;20589;-74
2022/09/28 02:41:16;;;;;;;5.38;3.90;;;;;;;9.51;100.00;98340.53;5034166;28;20197;-74
2022/09/28 02:43:56;;;;;;;3.90;3.42;;;;;;;9.40;100.00;98336.78;5033795;28;20235;-73
2022/09/28 02:46:31;;;;;;;5.60;2.60;;;;;;;9.34;100.00;98344.47;5023843;28;20213;-74
2022/09/28 02:49:09;;;;;;;3.40;2.55;;;;;;;9.24;100.00;98338.88;5013427;28;20212;-73
2022/09/28 02:51:43;;;;;;;6.53;3.15;;;;;;;9.16;100.00;98331.41;5017264;28;20287;-74
2022/09/28 02:54:26;;;;;;;2.95;2.63;;;;;;;9.16;100.00;98326.03;5016771;28;20237;-74
2022/09/28 02:57:03;;;;;;;3.25;2.10;;;;;;;9.06;100.00;98340.22;5012837;28;20213;-74
2022/09/28 02:59:46;;;;;;;3.42;1.50;;;;;;;8.93;100.00;98327.69;5014458;28;20204;-74
2022/09/28 03:02:22;;;;;;;1.98;1.33;;;;;;;8.98;100.00;98328.22;5013848;28;20197;-73
2022/09/28 03:05:01;;;;;;;2.15;1.00;;;;;;;8.89;100.00;98331.56;5019871;28;20193;-75
2022/09/28 03:07:33;;;;;;;1.80;1.20;;;;;;;8.89;100.00;98330.72;5013406;28;20213;-75
2022/09/28 03:10:05;;;;;;;2.75;1.60;;;;;;;8.88;100.00;98340.56;5019699;28;20185;-75
2022/09/28 03:12:33;;;;;;;2.03;1.40;;;;;;;8.83;100.00;98331.97;5039776;28;20229;-73
2022/09/28 03:15:11;;;;;;;1.60;1.27;;;;;;;8.81;100.00;98338.44;5034578;28;20230;-73
2022/09/28 03:17:38;;;;;;;1.90;1.25;;;;;;;8.70;100.00;98339.19;5024887;28;20203;-74
2022/09/28 03:20:06;;;;;;;1.80;1.30;;;;;;;8.70;100.00;98345.41;5016363;28;20295;-74
2022/09/28 03:22:32;;;;;;;1.88;1.23;;;;;;;8.74;100.00;98340.69;5014868;28;20223;-73
2022/09/28 03:24:59;;;;;;;13.40;9.48;;;;;;;8.75;100.00;98340.59;5019442;28;20200;-74
2022/09/28 03:27:25;;;;;;;4.20;2.10;;;;;;;8.74;100.00;98343.38;5015494;28;20215;-73
2022/09/28 03:29:52;;;;;;;3.90;2.97;;;;;;;8.81;100.00;98349.16;5014210;28;20207;-73
2022/09/28 03:32:20;;;;;;;2.35;1.67;;;;;;;8.73;100.00;98350.56;5013272;28;20208;-74
2022/09/28 03:34:46;;;;;;;2.75;1.25;;;;;;;8.73;100.00;98350.56;5012683;28;20232;-74
2022/09/28 03:37:13;;;;;;;2.83;1.30;;;;;;;8.75;100.00;98347.75;5012768;28;20215;-73
2022/09/28 03:39:39;;;;;;;2.72;1.48;;;;;;;8.81;100.00;98346.47;5024997;28;20209;-74
2022/09/28 03:42:06;;;;;;;4.40;1.50;;;;;;;8.79;100.00;98348.41;5026489;28;20208;-74
2022/09/28 03:44:32;;;;;;;7.25;1.52;;;;;;;8.65;100.00;98349.38;5033995;28;20222;-74
2022/09/28 03:46:59;;;;;;;1.95;1.20;;;;;;;8.54;100.00;98342.09;5019125;28;20205;-75
2022/09/28 03:49:27;;;;;;;2.05;1.75;;;;;;;8.40;100.00;98344.84;5008422;28;20204;-74
2022/09/28 03:51:53;;;;;;;5.78;1.23;;;;;;;8.36;100.00;98342.34;5004083;28;20582;-73
2022/09/28 03:54:20;;;;;;;3.13;1.40;;;;;;;8.42;100.00;98338.44;5013055;28;20239;-73
2022/09/28 03:56:46;;;;;;;3.22;1.48;;;;;;;8.42;100.00;98334.91;5019365;28;20201;-75
2022/09/28 03:59:13;;;;;;;3.13;1.50;;;;;;;8.37;100.00;98327.16;5025008;28;20655;-73
2022/09/28 04:01:39;;;;;;;4.70;1.63;;;;;;;8.43;100.00;98332.09;5015236;28;20197;-74
2022/09/28 04:04:06;;;;;;;4.43;1.58;;;;;;;8.40;100.00;98329.63;5016836;28;20241;-75
2022/09/28 04:06:34;;;;;;;2.70;1.80;;;;;;;8.40;100.00;98329.63;5017120;28;20588;-74
2022/09/28 04:09:00;;;;;;;4.30;2.00;;;;;;;8.39;100.00;98343.09;5015842;28;20214;-75
2022/09/28 04:11:27;;;;;;;5.00;2.20;;;;;;;8.37;100.00;98340.56;5013115;28;20774;-74
2022/09/28 04:13:53;;;;;;;2.65;2.30;;;;;;;8.36;100.00;98339.66;5016954;28;20218;-73
2022/09/28 04:16:20;;;;;;;3.35;2.88;;;;;;;8.33;100.00;98339.03;5017495;28;20226;-73
2022/09/28 04:18:47;;;;;;;3.50;2.70;;;;;;;8.36;100.00;98336.13;5012026;28;20202;-74
2022/09/28 04:21:15;;;;;;;3.85;2.90;;;;;;;8.37;100.00;98345.91;5012519;28;20540;-76
2022/09/28 04:23:43;;;;;;;4.03;3.00;;;;;;;8.36;100.00;98339.66;5012688;28;20223;-73
2022/09/28 04:26:16;;;;;;;4.40;2.97;;;;;;;8.34;100.00;98344.31;5012354;28;20204;-73
2022/09/28 04:31:27;;;;;;;17.40;9.20;;;;;;;8.31;100.00;98341.81;5015821;28;20289;-73
2022/09/28 04:33:54;;;;;;;25.33;16.40;;;;;;;8.25;100.00;98355.63;5017707;28;20214;-72
2022/09/28 04:36:20;;;;;;;10.50;6.00;;;;;;;8.26;100.00;98359.22;5012599;28;20631;-73
2022/09/28 04:38:48;;;;;;;5.85;4.13;;;;;;;8.29;100.00;98356.31;5012017;28;20218;-72
2022/09/28 04:41:14;;;;;;;7.22;4.13;;;;;;;8.32;100.00;98362.31;5008239;28;20579;-73
2022/09/28 04:43:41;;;;;;;5.03;3.55;;;;;;;8.38;100.00;98360.19;5003803;28;20222;-75
2022/09/28 04:46:07;;;;;;;6.30;3.75;;;;;;;8.42;100.00;98372.47;5005704;28;20691;-74
2022/09/28 04:48:34;;;;;;;6.28;4.00;;;;;;;8.44;100.00;98357.97;5019792;28;20198;-74
2022/09/28 04:51:00;;;;;;;5.35;4.20;;;;;;;8.43;100.00;98368.78;5012013;28;20194;-73
2022/09/28 04:53:28;;;;;;;5.68;4.35;;;;;;;8.44;100.00;98360.66;5011648;28;20246;-74
2022/09/28 04:55:58;;;;;;;7.93;4.32;;;;;;;8.38;100.00;98354.81;5011696;28;20627;-74
2022/09/28 04:58:25;;;;;;;6.90;4.60;;;;;;;8.39;100.00;98368.13;5011732;28;20205;-73
2022/09/28 05:00:52;;;;;;;6.93;5.05;;;;;;;8.44;100.00;98366.00;5011143;28;20747;-73
2022/09/28 05:03:19;;;;;;;5.57;4.53;;;;;;;8.30;100.00;98368.75;5018533;28;20238;-74
2022/09/28 05:05:46;;;;;;;9.38;5.72;;;;;;;8.30;100.00;98361.56;5025180;28;20679;-74
2022/09/28 05:08:13;;;;;;;5.70;4.70;;;;;;;8.30;100.00;98374.13;5018687;28;20304;-74
2022/09/28 05:10:40;;;;;;;6.25;4.40;;;;;;;8.35;100.00;98372.84;5016369;28;20210;-76
2022/09/28 05:13:08;;;;;;;5.55;4.90;;;;;;;8.32;100.00;98375.75;5015304;28;20227;-75
2022/09/28 05:15:35;;;;;;;10.55;8.18;;;;;;;8.30;100.00;98374.97;5012081;28;20226;-73
2022/09/28 05:18:02;;;;;;;7.30;5.00;;;;;;;8.28;100.00;98376.06;5011719;28;20198;-76
2022/09/28 05:20:29;;;;;;;13.57;7.55;;;;;;;8.28;100.00;98381.41;5021190;28;20663;-73
2022/09/28 05:22:55;;;;;;;7.80;5.10;;;;;;;8.23;100.00;98380.84;5013211;28;20220;-74
2022/09/28 05:25:22;;;;;;;9.10;5.82;;;;;;;8.23;100.00;98386.22;5013344;28;20208;-75
2022/09/28 05:27:55;;;;;;;10.20;5.75;;;;;;;8.20;100.00;98389.09;5014271;28;20209;-76
2022/09/28 05:30:24;;;;;;;7.65;5.20;;;;;;;8.17;100.00;98383.97;5015135;28;20347;-75
2022/09/28 05:32:51;;;;;;;7.82;5.32;;;;;;;8.18;100.00;98391.88;5016072;28;20227;-74
2022/09/28 05:35:18;;;;;;;8.32;4.97;;;;;;;8.12;100.00;98390.50;5018359;28;20590;-75
2022/09/28 05:37:44;;;;;;;7.47;5.07;;;;;;;8.04;100.00;98395.50;5034468;28;20192;-74
2022/09/28 05:40:11;;;;;;;8.52;5.10;;;;;;;7.97;100.00;98399.56;5015697;28;20207;-74
2022/09/28 05:42:37;;;;;;;7.20;5.10;;;;;;;7.92;100.00;98401.69;5015369;28;20313;-75
2022/09/28 05:45:05;;;;;;;8.05;5.18;;;;;;;7.86;100.00;98402.09;5015198;28;20226;-74
2022/09/28 05:47:37;;;;;;;8.43;5.40;;;;;;;7.88;100.00;98405.53;5016280;28;20237;-75
2022/09/28 05:50:05;;;;;;;8.27;4.82;;;;;;;7.87;100.00;98403.81;5020541;28;20183;-74
2022/09/28 05:52:31;;;;;;;7.00;4.25;;;;;;;7.80;100.00;98399.81;5021649;28;20194;-78
2022/09/28 05:54:58;;;;;;;9.23;4.63;;;;;;;7.77;100.00;98398.19;5030727;28;20190;-75
2022/09/28 05:57:24;;;;;;;7.28;4.10;;;;;;;7.78;100.00;98407.06;5051658;28;20210;-75
2022/09/28 05:59:51;;;;;;;6.15;4.32;;;;;;;7.76;100.00;98404.53;5035467;28;20203;-74
2022/09/28 06:02:17;;;;;;;5.53;4.07;;;;;;;7.78;100.00;98405.28;5035294;28;20209;-76
2022/09/28 06:04:48;;;;;;;4.93;4.15;;;;;;;7.86;100.00;98412.81;5035026;28;20206;-73
2022/09/28 06:07:15;;;;;;;6.65;3.97;;;;;;;7.88;100.00;98416.25;5035160;28;20205;-75
2022/09/28 06:09:41;;;;;;;5.68;3.80;;;;;;;7.81;100.00;98415.78;5027954;28;20295;-75
2022/09/28 06:12:08;;;;;;;5.85;3.55;;;;;;;7.82;100.00;98414.81;5026612;28;20206;-75
2022/09/28 06:14:35;;;;;;;3.88;3.15;;;;;;;7.89;100.00;98412.59;5034497;28;20263;-74
2022/09/28 06:17:01;;;;;;;8.43;3.95;;;;;;;7.99;100.00;98412.88;5034731;28;20230;-74
2022/09/28 06:19:27;;;;;;;6.90;3.95;;;;;;;8.12;100.00;98416.44;5034819;28;20229;-74
2022/09/28 06:21:55;;;;;;;7.05;3.80;;;;;;;8.39;100.00;98419.09;5034171;28;20206;-74
2022/09/28 06:24:22;;;;;;;4.47;2.50;;;;;;;8.69;100.00;98431.41;5034442;28;20226;-74
2022/09/28 06:26:48;;;;;;;4.88;2.63;;;;;;;9.01;100.00;98433.66;5028998;28;20206;-74
2022/09/28 06:29:18;;;;;;;3.45;2.85;;;;;;;9.21;100.00;98435.81;5022464;28;20249;-73
2022/09/28 06:31:44;;;;;;;3.40;2.20;;;;;;;9.55;100.00;98444.13;5014158;28;20242;-74
2022/09/28 06:34:11;;;;;;;2.97;1.80;;;;;;;9.84;100.00;98444.69;5014385;28;20221;-75
2022/09/28 06:36:38;;;;;;;2.40;1.80;;;;;;;10.08;100.00;98442.00;5018533;28;20229;-74
2022/09/28 06:39:06;;;;;;;3.67;2.75;;;;;;;10.14;100.00;98430.78;5023367;28;20213;-73
2022/09/28 06:41:33;;;;;;;3.50;2.72;;;;;;;10.41;100.00;98432.41;5021024;28;20210;-73
2022/09/28 06:44:00;;;;;;;2.30;1.90;;;;;;;10.90;100.00;98438.53;5044552;28;20221;-73
2022/09/28 06:46:27;;;;;;;3.00;2.10;;;;;;;11.11;100.00;98446.78;5041900;28;20205;-74
2022/09/28 06:48:53;;;;;;;3.15;2.58;;;;;;;11.20;100.00;98438.84;5034609;28;20205;-73
2022/09/28 06:51:20;;;;;;;3.88;1.70;;;;;;;11.58;100.00;98439.47;5013795;28;20203;-74
2022/09/28 06:53:47;;;;;;;1.85;1.40;;;;;;;11.59;100.00;98444.69;5013823;28;20238;-74
2022/09/28 06:56:27;;;;;;;2.83;1.10;;;;;;;11.45;100.00;98450.34;5131374;27;20543;-74
2022/09/28 06:58:54;;;;;;;1.55;1.10;;;;;;;11.32;100.00;98453.16;5140851;27;20198;-75
2022/09/28 07:01:21;;;;;;;2.03;1.30;;;;;;;11.28;100.00;98462.47;5153981;28;20195;-76
2022/09/28 07:03:47;;;;;;;2.55;1.42;;;;;;;11.78;100.00;98462.09;5140626;28;20220;-77
2022/09/28 07:06:14;;;;;;;2.70;1.50;;;;;;;12.15;100.00;98464.53;5133414;28;20185;-76
2022/09/28 07:08:40;;;;;;;2.20;1.30;;;;;;;12.24;100.00;98453.81;5133367;28;20215;-75
2022/09/28 07:11:07;;;;;;;2.85;1.38;;;;;;;12.91;100.00;98463.47;5134042;28;20292;-74
2022/09/28 07:13:36;;;;;;;2.35;1.23;;;;;;;13.05;100.00;98467.69;5132916;28;20270;-76
2022/09/28 07:16:03;;;;;;;2.05;1.40;;;;;;;13.30;100.00;98462.88;5133874;28;20236;-77
2022/09/28 07:18:30;;;;;;;1.77;1.17;;;;;;;12.40;100.00;98466.03;5134190;28;20269;-75
2022/09/28 07:20:57;;;;;;;4.15;1.38;;;;;;;12.66;100.00;98472.81;5126333;28;20594;-75
2022/09/28 07:23:26;;;;;;;6.18;1.45;;;;;;;12.64;100.00;98471.19;5116876;28;20233;-75
2022/09/28 07:25:52;;;;;;;2.33;1.60;;;;;;;12.66;100.00;98474.63;5112735;28;20238;-74
2022/09/28 07:28:20;;;;;;;2.53;1.70;;;;;;;12.57;100.00;98484.34;5107582;28;20218;-75
2022/09/28 07:30:47;;;;;;;2.70;1.33;;;;;;;11.89;100.00;98498.03;5109989;28;20293;-74
2022/09/28 07:33:16;;;;;;;2.17;1.65;;;;;;;11.78;100.00;98500.72;5110022;28;20277;-76
2022/09/28 07:35:49;;;;;;;2.40;1.65;;;;;;;11.56;100.00;98509.66;5109306;28;20290;-74
2022/09/28 07:38:16;;;;;;;3.25;2.38;;;;;;;11.48;100.00;98512.94;5108822;28;20200;-75
2022/09/28 07:43:27;;;;;;;4.57;2.13;;;;;;;11.81;100.00;98519.34;5109393;28;20219;-75
2022/09/28 07:45:54;;;;;;;1.95;1.55;;;;;;;12.07;100.00;98513.69;5110002;28;20289;-75
2022/09/28 07:48:22;;;;;;;2.78;1.60;;;;;;;12.35;100.00;98523.09;5109874;28;20200;-75
2022/09/28 07:50:50;;;;;;;3.50;1.30;;;;;;;12.13;100.00;98521.31;5119711;28;20202;-74
2022/09/28 07:53:17;;;;;;;2.45;1.58;;;;;;;12.41;100.00;98525.28;5119597;28;20227;-74
2022/09/28 07:55:44;;;;;;;3.50;1.80;;;;;;;12.86;100.00;98522.41;5119673;28;20221;-73
2022/09/28 07:58:10;;;;;;;2.42;1.42;;;;;;;14.30;100.00;98525.19;5112698;28;20199;-76
2022/09/28 08:00:37;;;;;;;4.85;1.30;;;;;;;15.45;100.00;98529.09;5109551;28;20207;-75
2022/09/28 08:03:05;;;;;;;3.42;1.60;;;;;;;17.06;87.59;98532.28;5108232;28;20223;-74
2022/09/28 08:05:34;;;;;;;3.72;1.33;;;;;;;18.59;72.46;98536.25;5108924;28;20691;-75
2022/09/28 08:08:02;;;;;;;2.70;1.35;;;;;;;18.65;65.87;98543.75;5075957;28;20203;-76
2022/09/28 08:10:28;;;;;;;1.55;0.90;;;;;;;17.80;68.75;98547.28;5095168;28;20290;-75
2022/09/28 08:12:55;;;;;;;2.45;1.15;;;;;;;19.74;57.31;98542.69;5094621;28;20592;-76
2022/09/28 08:15:22;;;;;;;2.53;1.00;;;;;;;20.99;51.10;98546.47;5095760;28;20228;-74
2022/09/28 08:17:49;;;;;;;2.13;1.00;;;;;;;21.36;49.76;98544.81;5107079;28;20437;-74
2022/09/28 08:23:03;;;;;;;1.53;0.93;;;;;;;19.51;53.01;98553.44;5101939;28;21000;-74
2022/09/28 08:25:29;;;;;;;4.90;1.03;;;;;;;19.85;50.09;98555.13;5106036;28;20434;-75
2022/09/28 08:27:56;;;;;;;1.50;0.80;;;;;;;21.43;47.83;98551.28;5105761;28;20441;-75
2022/09/28 08:30:22;;;;;;;1.70;0.77;;;;;;;22.43;44.46;98563.81;5094767;28;20452;-75
2022/09/28 08:32:49;;;;;;;1.90;1.00;;;;;;;21.39;46.92;98563.63;5094074;28;20458;-74
2022/09/28 08:35:17;;;;;;;3.53;0.80;;;;;;;19.99;51.46;98562.63;5095641;28;20484;-73
2022/09/28 08:37:49;;;;;;;2.03;0.90;;;;;;;19.82;50.49;98567.25;5093545;28;20434;-75
2022/09/28 08:40:23;;;;;;;2.50;0.80;;;;;;;19.18;52.11;98564.38;5093855;28;20434;-75
2022/09/28 08:42:53;;;;;;;2.03;1.00;;;;;;;17.69;60.69;98567.47;5093981;28;20493;-75
2022/09/28 08:45:23;;;;;;;2.13;1.00;;;;;;;17.32;62.13;98570.44;5093708;28;20541;-75
2022/09/28 08:50:49;;;;;;;3.08;0.80;;;;;;;16.88;67.99;98570.34;5093630;28;20457;-75
2022/09/28 08:53:31;;;;;;;2.38;1.25;;;;;;;17.57;65.26;98567.88;5093594;28;20597;-74
2022/09/28 08:56:02;;;;;;;2.07;0.93;;;;;;;19.62;56.99;98572.19;5093642;28;20226;-75
2022/09/28 08:58:33;;;;;;;6.40;0.93;;;;;;;19.95;53.45;98573.03;5093234;28;20414;-74
2022/09/28 09:01:00;;;;;;;3.17;1.10;;;;;;;18.47;55.98;98582.88;5094463;28;20418;-75
2022/09/28 09:03:32;;;;;;;1.40;0.80;;;;;;;16.46;67.04;98579.00;5093625;28;21048;-74
2022/09/28 09:06:07;;;;;;;4.07;0.95;;;;;;;16.11;71.24;98569.75;5093758;28;20442;-76
2022/09/28 09:08:45;;;;;;;2.15;0.95;;;;;;;16.20;72.33;98577.00;5093357;28;20187;-75
2022/09/28 09:11:26;;;;;;;1.40;0.90;;;;;;;15.66;67.87;98578.56;5105247;28;20195;-75
2022/09/28 09:14:33;;;;;;;2.20;0.80;;;;;;;15.49;69.37;98572.06;5090835;28;20226;-74
2022/09/28 09:17:06;;;;;;;1.90;0.88;;;;;;;14.76;72.33;98577.91;4993812;28;20227;-74
2022/09/28 09:19:45;;;;;;;1.50;0.98;;;;;;;14.19;76.46;98592.97;4992538;28;20215;-72
2022/09/28 09:22:17;;;;;;;1.50;1.17;;;;;;;13.88;83.02;98592.13;4994050;28;20187;-74
2022/09/28 09:24:49;;;;;;;1.85;1.00;;;;;;;15.16;77.68;98585.06;4992182;28;20187;-75
2022/09/28 09:27:35;;;;;;;3.33;1.40;;;;;;;16.49;65.08;98584.16;4991185;28;20277;-75
2022/09/28 09:30:06;;;;;;;5.25;1.00;;;;;;;17.15;60.50;98584.88;4991098;28;20611;-74
2022/09/28 09:32:46;;;;;;;1.80;0.98;;;;;;;15.37;64.41;98593.03;4991010;28;20254;-75
2022/09/28 09:35:41;;;;;;;2.22;1.00;;;;;;;15.25;66.93;98587.94;4990889;28;20230;-76
2022/09/28 09:38:32;;;;;;;2.78;1.00;;;;;;;14.99;68.17;98591.19;4990618;28;20207;-75
2022/09/28 09:41:10;;;;;;;2.03;0.82;;;;;;;14.17;74.19;98590.41;4971768;28;20268;-75
2022/09/28 09:43:57;;;;;;;2.20;1.15;;;;;;;14.12;77.52;98589.97;4971602;28;20228;-74
2022/09/28 09:46:33;;;;;;;2.10;0.82;;;;;;;14.46;78.04;98597.78;4972153;28;20196;-75
2022/09/28 09:49:05;;;;;;;3.28;1.17;;;;;;;16.16;66.91;98594.59;4973047;28;20195;-74
2022/09/28 09:51:40;;;;;;;1.92;1.00;;;;;;;17.56;59.48;98583.34;4999977;28;20207;-75
2022/09/28 09:54:17;;;;;;;1.75;0.95;;;;;;;20.29;50.67;98582.84;5097442;28;20212;-75
2022/09/28 09:56:49;;;;;;;4.03;0.93;;;;;;;21.27;46.06;98586.97;5093436;28;20207;-74
2022/09/28 09:59:23;;;;;;;2.03;1.00;;;;;;;23.09;42.27;98591.25;5092879;28;20448;-75
2022/09/28 10:01:51;;;;;;;3.10;1.10;;;;;;;21.23;42.70;98593.84;5092498;28;20428;-73
2022/09/28 10:04:23;;;;;;;1.53;0.83;;;;;;;17.91;51.31;98595.22;5092648;28;20450;-74
2022/09/28 10:06:55;;;;;;;1.93;0.80;;;;;;;17.88;54.07;98590.06;5099970;28;20418;-77
2022/09/28 10:09:26;;;;;;;4.03;1.07;;;;;;;17.04;55.59;98585.97;5101934;28;20521;-76
2022/09/28 10:11:53;;;;;;;3.30;1.17;;;;;;;15.98;60.88;98596.38;5101712;28;20430;-73
2022/09/28 10:14:22;;;;;;;3.63;1.20;;;;;;;15.76;60.56;98600.28;5099496;28;20472;-75
2022/09/28 10:16:51;;;;;;;1.50;0.90;;;;;;;15.04;65.34;98594.34;5097839;28;20517;-75
2022/09/28 10:19:20;;;;;;;2.47;0.88;;;;;;;14.86;69.77;98594.19;5095782;28;20620;-78
2022/09/28 10:21:50;;;;;;;3.25;0.73;;;;;;;14.25;75.62;98600.56;5095984;28;20200;-76
2022/09/28 10:24:21;;;;;;;2.40;0.95;;;;;;;14.10;77.63;98602.78;5095244;28;20287;-75
2022/09/28 10:26:54;;;;;;;1.55;0.90;;;;;;;13.94;81.04;98602.41;5096276;28;20196;-75
2022/09/28 10:29:24;;;;;;;1.75;0.85;;;;;;;13.89;82.47;98605.53;5095179;28;20184;-75
2022/09/28 10:31:52;;;;;;;2.13;0.90;;;;;;;13.72;79.97;98606.97;5093715;28;20200;-75
2022/09/28 10:34:26;;;;;;;2.13;1.08;;;;;;;13.78;81.76;98600.19;5111524;28;20216;-75
2022/09/28 10:36:57;;;;;;;2.50;1.15;;;;;;;14.15;76.02;98605.06;5097177;28;20211;-75
2022/09/28 10:39:28;;;;;;;2.13;1.00;;;;;;;14.04;77.83;98605.16;5097468;28;20230;-76
2022/09/28 10:41:58;;;;;;;2.28;1.00;;;;;;;14.09;80.29;98613.75;5102238;28;20245;-75
2022/09/28 10:44:25;;;;;;;3.85;1.05;;;;;;;14.52;80.59;98612.63;5105461;28;20242;-76
2022/09/28 10:46:56;;;;;;;1.77;0.82;;;;;;;15.31;72.32;98609.91;5101956;28;20206;-76
2022/09/28 10:49:25;;;;;;;1.73;0.93;;;;;;;16.08;65.25;98604.47;5084741;28;20211;-76
2022/09/28 10:51:54;;;;;;;4.15;1.30;;;;;;;15.83;65.25;98615.00;5096383;28;20200;-74
2022/09/28 10:54:23;;;;;;;2.88;1.42;;;;;;;16.53;61.76;98611.84;5098211;28;20782;-75
2022/09/28 10:56:51;;;;;;;2.30;1.10;;;;;;;17.17;60.27;98616.34;5104677;28;20218;-75
2022/09/28 10:59:37;;;;;;;3.15;1.10;;;;;;;17.40;57.01;98610.44;5100630;28;20204;-75
2022/09/28 11:02:19;;;;;;;1.30;0.77;;;;;;;16.85;59.27;98622.31;5094560;28;20235;-75
2022/09/28 11:04:51;;;;;;;3.05;1.02;;;;;;;15.07;64.05;98623.88;5093519;28;20176;-76
2022/09/28 11:07:19;;;;;;;1.75;0.80;;;;;;;14.80;67.38;98632.69;5092955;28;20200;-76
2022/09/28 11:09:48;;;;;;;2.20;0.98;;;;;;;14.23;69.17;98618.78;5092792;28;20624;-76
2022/09/28 11:12:19;;;;;;;2.20;1.13;;;;;;;14.21;70.77;98618.06;5092078;28;20214;-77
2022/09/28 11:14:51;;;;;;;1.85;1.05;;;;;;;14.08;73.41;98617.44;5092313;28;20199;-75
2022/09/28 11:17:26;;;;;;;1.95;1.10;;;;;;;14.31;73.38;98627.09;5092853;28;20296;-76
2022/09/28 11:19:53;;;;;;;2.28;1.08;;;;;;;14.47;74.46;98613.03;5093847;28;20233;-75
2022/09/28 11:22:21;;;;;;;1.65;0.93;;;;;;;14.66;73.03;98622.25;5111196;28;20211;-76
2022/09/28 11:24:50;;;;;;;5.35;1.38;;;;;;;14.95;68.66;98609.59;5122078;28;20206;-74
2022/09/28 11:27:22;;;;;;;6.38;1.23;;;;;;;15.31;65.28;98609.91;5100155;28;20574;-75
2022/09/28 11:29:57;;;;;;;3.67;1.00;;;;;;;15.59;62.60;98601.88;5093231;28;20206;-75
2022/09/28 11:32:28;;;;;;;2.97;1.13;;;;;;;15.47;65.18;98606.59;5095189;28;20200;-75
2022/09/28 11:34:58;;;;;;;1.88;1.40;;;;;;;15.47;63.32;98605.72;5095348;28;20297;-75
2022/09/28 11:37:44;;;;;;;1.98;1.80;;;;;;;15.12;62.66;98608.03;5092071;28;20227;-75
2022/09/28 11:40:22;;;;;;;1.83;1.25;;;;;;;15.52;58.81;98598.88;5096245;28;20202;-75
2022/09/28 11:42:57;;;;;;;1.23;0.90;;;;;;;15.57;60.59;98599.28;5099757;28;20228;-77
2022/09/28 11:45:39;;;;;;;1.30;0.80;;;;;;;15.70;61.20;98599.00;5115359;28;20256;-76
2022/09/28 11:48:08;;;;;;;2.30;0.70;;;;;;;16.23;58.94;98606.56;5101808;28;20664;-75
2022/09/28 11:50:47;;;;;;;2.38;0.77;;;;;;;15.91;58.76;98601.53;5095909;28;20192;-74
2022/09/28 11:53:30;;;;;;;1.88;0.90;;;;;;;16.23;56.95;98605.72;5101722;28;20219;-74
2022/09/28 11:56:04;;;;;;;1.77;1.10;;;;;;;16.21;56.43;98616.75;5103890;28;20230;-74